Time;durP1;ratioP1;P1;durP2;ratioP2;P2;SDS_P1;SDS_P2;PMS_P1;PMS_P2;Temp;Humidity;BMP_temperature;BMP_pressure;BME280_temperature;BME280_humidity;BME280_pressure;Samples;Min_cycle;Max_cycle;Signal;HPM_P1;HPM_P2
2024/01/15 00:00:17;;;;;;;55.90;29.58;;;;;;;6.79;67.94;98043.53;5093314;28;20440;-48
2024/01/15 00:02:43;;;;;;;31.42;22.48;;;;;;;6.77;67.66;98041.09;5093451;28;20028;-47
2024/01/15 00:05:09;;;;;;;36.40;22.92;;;;;;;6.48;66.60;98046.53;5093360;28;20028;-48
2024/01/15 00:07:35;;;;;;;39.60;23.65;;;;;;;6.29;67.76;98032.34;5092002;28;20032;-48
2024/01/15 00:10:02;;;;;;;39.58;24.80;;;;;;;6.27;68.66;98049.97;5093262;28;20362;-47
2024/01/15 00:12:27;;;;;;;38.35;23.38;;;;;;;5.97;69.89;98056.13;5091923;28;20028;-48
2024/01/15 00:14:53;;;;;;;48.97;28.83;;;;;;;5.69;71.50;98053.41;5092987;28;20035;-48
2024/01/15 00:17:22;;;;;;;40.30;26.40;;;;;;;5.62;73.31;98044.75;5092847;28;20415;-50
2024/01/15 00:19:48;;;;;;;47.42;26.23;;;;;;;5.82;74.33;98041.56;5091798;28;20103;-50
2024/01/15 00:22:13;;;;;;;43.80;29.15;;;;;;;5.74;74.53;98048.47;5093005;28;20020;-49
2024/01/15 00:24:39;;;;;;;36.47;23.20;;;;;;;5.72;76.46;98042.66;5093042;28;20055;-50
2024/01/15 00:27:05;;;;;;;33.03;21.67;;;;;;;5.64;75.95;98039.38;5091598;28;20024;-50
2024/01/15 00:29:30;;;;;;;46.47;26.38;;;;;;;5.51;77.30;98038.22;5091568;28;20051;-50
2024/01/15 00:31:56;;;;;;;41.03;24.30;;;;;;;5.49;78.21;98032.38;5092857;28;20024;-50
2024/01/15 00:34:22;;;;;;;35.22;24.45;;;;;;;5.50;78.41;98028.81;5091422;28;20031;-49
2024/01/15 00:36:48;;;;;;;38.25;28.00;;;;;;;5.38;79.39;98012.84;5092706;28;20024;-50
2024/01/15 00:39:14;;;;;;;36.13;25.95;;;;;;;5.46;80.59;98001.53;5092685;28;20016;-50
2024/01/15 00:41:39;;;;;;;30.10;20.92;;;;;;;5.68;80.28;98004.16;5092731;28;20066;-49
2024/01/15 00:44:05;;;;;;;39.00;22.75;;;;;;;6.07;79.11;97995.91;5091285;28;20035;-50
2024/01/15 00:46:31;;;;;;;35.17;21.70;;;;;;;6.27;78.18;97987.44;5092643;28;20035;-50
2024/01/15 00:48:56;;;;;;;39.33;23.50;;;;;;;6.58;77.18;97981.84;5092876;28;20103;-50
2024/01/15 00:51:23;;;;;;;38.55;22.50;;;;;;;6.70;75.95;97989.91;5092201;28;20371;-50
2024/01/15 00:53:51;;;;;;;36.72;22.23;;;;;;;6.77;76.39;97998.59;5091926;28;20047;-50
2024/01/15 00:56:17;;;;;;;38.75;24.83;;;;;;;6.60;75.43;98009.31;5092374;28;20023;-50
2024/01/15 00:58:42;;;;;;;34.20;23.52;;;;;;;6.28;76.90;98010.72;5092391;28;20016;-50
2024/01/15 01:01:08;;;;;;;35.72;24.13;;;;;;;6.14;77.77;98025.44;5091007;28;20032;-50
2024/01/15 01:03:34;;;;;;;46.28;25.75;;;;;;;6.12;79.29;98027.44;5091018;28;20028;-50
2024/01/15 01:06:00;;;;;;;34.53;22.88;;;;;;;6.42;80.46;98026.44;5090909;28;20032;-50
2024/01/15 01:08:25;;;;;;;36.50;22.48;;;;;;;6.63;78.59;98030.81;5092263;28;20073;-51
2024/01/15 01:10:51;;;;;;;45.03;25.77;;;;;;;6.73;78.23;98028.66;5090927;28;20081;-50
2024/01/15 01:13:17;;;;;;;41.70;23.58;;;;;;;6.93;78.02;98031.38;5092399;28;20048;-50
2024/01/15 01:15:45;;;;;;;37.88;23.15;;;;;;;7.00;77.75;98033.03;5090760;28;20039;-50
2024/01/15 01:18:11;;;;;;;31.05;20.60;;;;;;;7.10;76.29;98034.44;5090440;28;20048;-50
2024/01/15 01:20:37;;;;;;;30.13;21.10;;;;;;;7.14;76.25;98041.72;5090842;28;20051;-50
2024/01/15 01:23:03;;;;;;;32.35;19.88;;;;;;;7.06;74.92;98038.44;5090691;28;20055;-50
2024/01/15 01:25:28;;;;;;;34.63;23.13;;;;;;;6.98;75.62;98023.75;5092051;28;20036;-50
2024/01/15 01:27:54;;;;;;;40.65;22.33;;;;;;;6.71;75.32;98018.41;5092037;28;20032;-50
2024/01/15 01:30:20;;;;;;;30.70;21.48;;;;;;;6.68;75.25;98016.19;5091953;28;20020;-50
2024/01/15 01:32:46;;;;;;;33.00;22.63;;;;;;;6.41;75.20;98015.22;5090636;28;20020;-50
2024/01/15 01:35:12;;;;;;;31.63;20.58;;;;;;;6.31;75.79;98009.53;5091805;28;20031;-48
2024/01/15 01:37:38;;;;;;;31.38;20.88;;;;;;;6.50;76.92;98027.13;5073763;28;20398;-48
2024/01/15 01:40:05;;;;;;;29.27;20.58;;;;;;;6.66;76.77;98026.00;5090504;28;20031;-48
2024/01/15 01:42:31;;;;;;;33.40;18.75;;;;;;;6.77;76.37;98024.66;5090500;28;20086;-47
2024/01/15 01:44:56;;;;;;;30.48;18.17;;;;;;;6.84;75.85;98015.09;5091865;28;20126;-47
2024/01/15 01:47:23;;;;;;;32.15;19.70;;;;;;;6.87;74.40;98022.50;5091839;28;20024;-48
2024/01/15 01:49:48;;;;;;;30.92;17.98;;;;;;;6.79;74.19;98030.50;5091790;28;20478;-47
2024/01/15 01:52:15;;;;;;;30.23;18.00;;;;;;;6.80;74.68;98037.31;5090396;28;20020;-47
2024/01/15 01:54:41;;;;;;;27.05;17.35;;;;;;;6.84;73.89;98032.50;5090382;28;20035;-48
2024/01/15 01:57:08;;;;;;;29.38;19.05;;;;;;;6.90;74.28;98032.56;5090306;28;20112;-47
2024/01/15 01:59:35;;;;;;;31.75;19.27;;;;;;;6.94;73.85;98032.97;5107333;28;20379;-47
2024/01/15 02:02:03;;;;;;;26.30;18.85;;;;;;;6.85;73.97;98037.53;5091635;28;20051;-48
2024/01/15 02:04:31;;;;;;;24.85;17.85;;;;;;;6.89;73.91;98035.38;5094359;28;20026;-47
2024/01/15 02:06:56;;;;;;;25.98;18.05;;;;;;;7.15;73.83;98045.13;5095651;28;20073;-47
2024/01/15 02:09:22;;;;;;;29.83;22.23;;;;;;;7.45;72.91;98048.25;5095628;28;20394;-47
2024/01/15 02:11:51;;;;;;;29.42;19.65;;;;;;;7.67;72.25;98038.47;5094235;28;20146;-47
2024/01/15 02:14:17;;;;;;;26.38;17.25;;;;;;;7.75;71.39;98037.50;5095600;28;20456;-47
2024/01/15 02:16:43;;;;;;;25.67;17.30;;;;;;;7.68;71.48;98023.59;5093777;28;20071;-48
2024/01/15 02:19:15;;;;;;;29.25;18.63;;;;;;;7.59;71.18;98015.16;5095435;28;20059;-48
2024/01/15 02:21:41;;;;;;;25.23;17.85;;;;;;;7.48;71.43;98007.88;5094078;28;20391;-47
2024/01/15 02:24:07;;;;;;;31.15;22.90;;;;;;;7.43;71.83;98013.72;5093979;28;20073;-48
2024/01/15 02:26:35;;;;;;;30.02;19.08;;;;;;;7.42;72.08;98006.88;5095352;28;20114;-48
2024/01/15 02:29:02;;;;;;;35.03;22.25;;;;;;;7.42;72.18;98004.25;5095269;28;20042;-48
2024/01/15 02:31:27;;;;;;;28.77;19.65;;;;;;;7.32;70.55;98009.03;5095172;28;20024;-48
2024/01/15 02:33:53;;;;;;;35.05;24.08;;;;;;;7.14;71.28;98012.19;5095185;28;20505;-48
2024/01/15 02:36:19;;;;;;;29.45;19.77;;;;;;;7.17;72.14;98004.78;5095045;28;20023;-48
2024/01/15 02:38:45;;;;;;;27.67;19.70;;;;;;;7.24;71.56;98012.63;5076812;28;20111;-48
2024/01/15 02:41:10;;;;;;;28.70;20.73;;;;;;;7.33;71.63;98008.84;5095089;28;20028;-47
2024/01/15 02:43:36;;;;;;;27.95;20.13;;;;;;;7.42;71.85;98003.47;5095024;28;20019;-48
2024/01/15 02:46:02;;;;;;;39.33;31.58;;;;;;;7.50;71.53;98006.69;5093630;28;20687;-48
2024/01/15 02:48:27;;;;;;;33.53;26.70;;;;;;;7.51;71.15;98002.28;5094940;28;20118;-47
2024/01/15 02:50:53;;;;;;;50.22;36.15;;;;;;;7.42;70.52;97995.63;5093494;28;20371;-48
2024/01/15 02:53:19;;;;;;;30.05;21.02;;;;;;;7.31;70.59;97982.16;5093503;28;20016;-48
2024/01/15 02:55:45;;;;;;;32.85;21.85;;;;;;;7.14;70.43;97970.44;5094710;28;20464;-48
2024/01/15 02:58:10;;;;;;;26.08;17.63;;;;;;;6.89;68.90;97970.94;5094715;28;20031;-48
2024/01/15 03:00:38;;;;;;;30.38;19.80;;;;;;;6.57;69.58;97978.41;5093326;28;20055;-48
2024/01/15 03:03:03;;;;;;;31.23;18.70;;;;;;;6.51;70.90;97984.38;5093244;28;20040;-47
2024/01/15 03:05:29;;;;;;;35.38;19.30;;;;;;;6.55;71.07;97984.81;5094439;28;20073;-48
2024/01/15 03:07:55;;;;;;;28.67;19.08;;;;;;;6.51;70.95;97979.19;5093207;28;20075;-48
2024/01/15 03:10:21;;;;;;;25.25;18.10;;;;;;;6.48;71.14;97982.19;5093153;28;20383;-48
2024/01/15 03:12:46;;;;;;;27.90;18.48;;;;;;;6.58;71.57;97985.25;5093091;28;20066;-48
2024/01/15 03:15:12;;;;;;;29.35;18.38;;;;;;;6.65;72.30;97981.88;5091989;28;20031;-48
2024/01/15 03:17:38;;;;;;;28.40;19.52;;;;;;;6.65;71.32;97980.06;5094123;28;20044;-48
2024/01/15 03:20:04;;;;;;;30.33;19.58;;;;;;;6.71;71.33;97973.28;5094215;28;20024;-48
2024/01/15 03:22:30;;;;;;;27.50;19.75;;;;;;;6.83;71.36;97973.53;5094502;28;20024;-48
2024/01/15 03:24:56;;;;;;;26.50;17.77;;;;;;;6.86;71.59;97968.75;5094233;28;20516;-47
2024/01/15 03:27:21;;;;;;;29.45;17.77;;;;;;;6.87;71.01;97974.75;5094147;28;20488;-48
2024/01/15 03:29:47;;;;;;;26.67;18.27;;;;;;;6.98;71.25;97982.03;5092957;28;20432;-48
2024/01/15 03:32:13;;;;;;;29.33;19.42;;;;;;;7.17;71.62;97976.06;5093949;28;20108;-48
2024/01/15 03:34:39;;;;;;;27.98;19.00;;;;;;;7.27;70.96;97977.53;5093915;28;20028;-48
2024/01/15 03:37:04;;;;;;;28.60;19.02;;;;;;;7.18;70.14;97976.88;5093901;28;20549;-48
2024/01/15 03:39:30;;;;;;;29.58;19.85;;;;;;;6.97;69.83;97981.22;5092569;28;20107;-48
2024/01/15 03:41:56;;;;;;;27.80;19.50;;;;;;;6.92;70.88;97986.22;5092559;28;20024;-48
2024/01/15 03:44:22;;;;;;;28.42;18.98;;;;;;;7.01;70.58;97981.66;5092486;28;20452;-48
2024/01/15 03:46:47;;;;;;;28.52;20.45;;;;;;;6.95;69.98;97980.59;5093761;28;20035;-47
2024/01/15 03:49:13;;;;;;;28.02;18.98;;;;;;;6.76;69.49;97965.66;5092425;28;20466;-48
2024/01/15 03:51:39;;;;;;;28.75;18.67;;;;;;;6.71;69.84;97971.47;5092333;28;20024;-48
2024/01/15 03:54:04;;;;;;;25.27;17.50;;;;;;;6.62;69.19;97964.81;5093821;28;20095;-48
2024/01/15 03:56:30;;;;;;;27.83;18.77;;;;;;;6.56;70.29;97965.56;5093463;28;20508;-48
2024/01/15 03:58:56;;;;;;;29.40;19.17;;;;;;;6.66;70.32;97953.00;5093538;28;20022;-47
2024/01/15 04:01:21;;;;;;;29.55;19.45;;;;;;;6.57;70.13;97952.34;5092178;28;20513;-48
2024/01/15 04:03:47;;;;;;;31.33;19.98;;;;;;;6.37;71.23;97959.25;5075308;28;20016;-47
2024/01/15 04:06:13;;;;;;;29.88;19.92;;;;;;;6.25;73.36;97958.97;5091996;28;20401;-47
2024/01/15 04:08:39;;;;;;;31.83;20.98;;;;;;;6.44;75.35;97951.47;5093278;28;20097;-48
2024/01/15 04:11:04;;;;;;;28.50;21.27;;;;;;;6.45;75.41;97937.44;5092084;28;20493;-47
2024/01/15 04:13:33;;;;;;;29.08;17.52;;;;;;;6.34;74.32;97936.19;5093237;28;20022;-47
2024/01/15 04:16:00;;;;;;;29.70;19.88;;;;;;;6.11;75.79;97949.44;5093060;28;20394;-47
2024/01/15 04:18:26;;;;;;;34.00;19.92;;;;;;;6.13;77.52;97950.88;5092689;28;20044;-48
2024/01/15 04:20:51;;;;;;;35.40;21.25;;;;;;;6.02;77.79;97943.59;5093097;28;20387;-48
2024/01/15 04:23:17;;;;;;;29.13;20.45;;;;;;;5.81;78.32;97931.38;5091690;28;20108;-48
2024/01/15 04:25:45;;;;;;;31.75;22.13;;;;;;;5.59;78.54;97944.41;5092952;28;20383;-47
2024/01/15 04:28:12;;;;;;;35.03;21.73;;;;;;;5.63;79.99;97950.03;5092808;28;20052;-47
2024/01/15 04:30:38;;;;;;;32.85;21.08;;;;;;;5.82;80.83;97946.00;5092910;28;20120;-48
2024/01/15 04:33:03;;;;;;;26.77;18.90;;;;;;;6.02;81.57;97947.97;5092865;28;20500;-48
2024/01/15 04:35:30;;;;;;;30.35;19.92;;;;;;;6.31;81.29;97936.56;5092781;28;20114;-47
2024/01/15 04:37:56;;;;;;;30.73;20.83;;;;;;;6.39;80.71;97945.03;5091425;28;20501;-48
2024/01/15 04:40:22;;;;;;;31.63;20.30;;;;;;;6.44;81.17;97941.03;5091366;28;20023;-48
2024/01/15 04:42:47;;;;;;;43.55;30.40;;;;;;;6.54;80.99;97944.91;5092649;28;20035;-48
2024/01/15 04:45:13;;;;;;;33.13;24.08;;;;;;;6.69;81.51;97952.59;5092605;28;20028;-48
2024/01/15 04:47:39;;;;;;;31.88;21.63;;;;;;;6.87;80.99;97953.91;5092690;28;20085;-48
2024/01/15 04:50:05;;;;;;;29.38;21.25;;;;;;;7.07;80.48;97951.38;5092565;28;20016;-48
2024/01/15 04:52:31;;;;;;;28.95;20.73;;;;;;;7.21;80.11;97947.78;5092464;28;20039;-48
2024/01/15 04:54:57;;;;;;;30.35;19.88;;;;;;;7.36;80.13;97947.63;5092455;28;20016;-48
2024/01/15 04:57:23;;;;;;;29.00;20.40;;;;;;;7.62;78.85;97938.22;5092443;28;20045;-48
2024/01/15 04:59:48;;;;;;;26.52;19.02;;;;;;;7.63;77.05;97938.03;5092408;28;20456;-47
2024/01/15 05:02:14;;;;;;;27.67;19.55;;;;;;;7.78;77.10;97919.53;5092336;28;20099;-48
2024/01/15 05:04:40;;;;;;;34.28;19.13;;;;;;;8.02;76.77;97919.94;5090987;28;20020;-48
2024/01/15 05:07:05;;;;;;;29.75;20.13;;;;;;;8.19;75.84;97918.53;5092224;28;20063;-48
2024/01/15 05:09:31;;;;;;;27.42;19.08;;;;;;;8.05;73.94;97917.75;5092273;28;20019;-48
2024/01/15 05:11:57;;;;;;;33.92;19.15;;;;;;;7.81;74.40;97932.22;5092445;28;20123;-47
2024/01/15 05:14:22;;;;;;;27.70;18.27;;;;;;;7.87;74.25;97922.75;5092441;28;20020;-47
2024/01/15 05:16:49;;;;;;;26.55;18.73;;;;;;;7.99;73.35;97921.16;5091696;28;20020;-47
2024/01/15 05:19:15;;;;;;;28.00;19.10;;;;;;;8.11;73.13;97927.38;5092062;28;20425;-47
2024/01/15 05:21:42;;;;;;;31.38;19.33;;;;;;;8.17;72.71;97929.19;5092070;28;20542;-47
2024/01/15 05:24:08;;;;;;;27.75;19.98;;;;;;;8.18;72.27;97922.94;5090595;28;20091;-47
2024/01/15 05:26:34;;;;;;;28.58;19.67;;;;;;;8.02;71.89;97925.16;5090687;28;20401;-47
2024/01/15 05:29:00;;;;;;;28.95;19.27;;;;;;;7.76;71.08;97930.19;5090669;28;20031;-47
2024/01/15 05:31:29;;;;;;;29.10;20.35;;;;;;;7.44;71.23;97923.13;5091972;28;20020;-47
2024/01/15 05:33:54;;;;;;;28.77;20.40;;;;;;;7.17;72.34;97925.69;5090679;28;20034;-47
2024/01/15 05:36:20;;;;;;;30.75;22.05;;;;;;;7.02;74.65;97925.84;5090431;28;20020;-48
2024/01/15 05:38:46;;;;;;;30.23;22.80;;;;;;;6.93;77.07;97925.22;5091240;28;20016;-47
2024/01/15 05:41:13;;;;;;;34.33;23.98;;;;;;;6.86;79.88;97919.19;5090488;28;20032;-47
2024/01/15 05:43:38;;;;;;;35.97;24.13;;;;;;;6.80;81.80;97918.16;5091830;28;20027;-47
2024/01/15 05:46:04;;;;;;;36.65;23.10;;;;;;;6.76;83.92;97922.16;5091767;28;20032;-47
2024/01/15 05:48:30;;;;;;;35.55;23.98;;;;;;;6.78;85.97;97937.59;5091866;28;20078;-47
2024/01/15 05:50:55;;;;;;;42.80;22.95;;;;;;;6.84;87.38;97934.22;5090420;28;20486;-47
2024/01/15 05:53:24;;;;;;;32.88;22.10;;;;;;;6.82;88.90;97928.38;5090452;28;20024;-47
2024/01/15 05:55:50;;;;;;;33.25;21.63;;;;;;;6.58;87.29;97934.91;5091641;28;20425;-47
2024/01/15 05:58:15;;;;;;;35.85;23.42;;;;;;;6.25;88.49;97937.31;5091696;28;20020;-47
2024/01/15 06:00:41;;;;;;;43.78;30.48;;;;;;;6.11;91.85;97945.03;5091723;28;20024;-47
2024/01/15 06:03:07;;;;;;;42.20;28.33;;;;;;;6.15;94.40;97943.66;5090344;28;20020;-47
2024/01/15 06:05:33;;;;;;;45.97;29.77;;;;;;;6.27;97.33;97937.94;5091660;28;20051;-47
2024/01/15 06:07:58;;;;;;;39.13;26.92;;;;;;;6.36;98.72;97935.00;5091712;28;20071;-47
2024/01/15 06:10:24;;;;;;;50.78;27.95;;;;;;;6.37;100.00;97928.78;5090311;28;20032;-47
2024/01/15 06:12:50;;;;;;;40.60;27.33;;;;;;;6.39;100.00;97932.00;5090327;28;20025;-46
2024/01/15 06:15:16;;;;;;;41.92;26.80;;;;;;;6.38;100.00;97940.03;5090208;28;20032;-46
2024/01/15 06:17:41;;;;;;;42.50;29.85;;;;;;;6.39;100.00;97937.19;5095203;28;20052;-46
2024/01/15 06:20:09;;;;;;;46.97;29.60;;;;;;;6.41;100.00;97944.84;5090169;28;20119;-46
2024/01/15 06:22:35;;;;;;;47.67;31.55;;;;;;;6.42;100.00;97943.03;5091552;28;20019;-46
2024/01/15 06:25:02;;;;;;;47.33;29.20;;;;;;;6.45;100.00;97948.66;5090155;28;20405;-46
2024/01/15 06:27:28;;;;;;;51.47;32.22;;;;;;;6.36;100.00;97945.41;5091466;28;20020;-46
2024/01/15 06:29:55;;;;;;;50.97;32.10;;;;;;;6.37;100.00;97941.81;5091444;28;20020;-46
2024/01/15 06:32:21;;;;;;;45.13;31.20;;;;;;;6.42;100.00;97938.66;5091369;28;20024;-46
2024/01/15 06:34:47;;;;;;;49.63;31.35;;;;;;;6.42;100.00;97933.44;5091335;28;20047;-46
2024/01/15 06:37:13;;;;;;;45.95;33.15;;;;;;;6.49;100.00;97936.88;5089951;28;20036;-47
2024/01/15 06:39:39;;;;;;;54.88;36.83;;;;;;;6.54;100.00;97942.31;5091323;28;20016;-46
2024/01/15 06:42:04;;;;;;;48.17;31.13;;;;;;;6.52;100.00;97943.47;5089954;28;20028;-46
2024/01/15 06:44:30;;;;;;;45.28;28.67;;;;;;;6.29;100.00;97943.75;5091309;28;20032;-46
2024/01/15 06:47:02;;;;;;;42.50;29.60;;;;;;;5.91;100.00;97931.03;5089921;28;20028;-46
2024/01/15 06:49:29;;;;;;;51.03;31.08;;;;;;;5.84;100.00;97933.59;5089957;28;20523;-46
2024/01/15 06:51:55;;;;;;;50.70;30.92;;;;;;;5.78;100.00;97934.34;5092898;28;20024;-46
2024/01/15 06:54:21;;;;;;;47.58;31.42;;;;;;;5.64;100.00;97936.03;5093477;28;20024;-46
2024/01/15 06:56:46;;;;;;;57.15;35.47;;;;;;;5.73;100.00;97932.31;5094966;28;20028;-46
2024/01/15 06:59:12;;;;;;;63.40;37.15;;;;;;;5.84;100.00;97932.81;5094741;28;20024;-46
2024/01/15 07:01:38;;;;;;;117.60;48.72;;;;;;;5.93;100.00;97924.66;5094664;28;20396;-46
2024/01/15 07:04:04;;;;;;;70.88;42.50;;;;;;;6.09;100.00;97933.22;5094608;28;20016;-46
2024/01/15 07:06:30;;;;;;;99.97;33.60;;;;;;;6.04;100.00;97925.97;5094585;28;20028;-45
2024/01/15 07:08:56;;;;;;;57.33;34.72;;;;;;;5.80;100.00;97925.38;5094754;28;20443;-45
2024/01/15 07:11:22;;;;;;;186.45;65.90;;;;;;;5.68;100.00;97923.47;5093273;28;20055;-45
2024/01/15 07:13:47;;;;;;;56.63;34.08;;;;;;;5.70;100.00;97918.88;5093126;28;20034;-45
2024/01/15 07:16:13;;;;;;;49.03;29.00;;;;;;;5.31;100.00;97930.53;5092945;28;20449;-46
2024/01/15 07:18:39;;;;;;;58.38;35.35;;;;;;;5.13;100.00;97928.31;5092918;28;20075;-46
2024/01/15 07:21:05;;;;;;;83.68;39.67;;;;;;;5.23;100.00;97930.63;5092929;28;20073;-45
2024/01/15 07:23:33;;;;;;;143.88;42.08;;;;;;;5.51;100.00;97939.31;5094235;28;20115;-47
2024/01/15 07:25:59;;;;;;;60.33;35.83;;;;;;;5.63;100.00;97934.41;5076001;28;20020;-47
2024/01/15 07:28:25;;;;;;;64.70;40.60;;;;;;;5.45;100.00;97942.66;5094133;28;20028;-48
2024/01/15 07:30:52;;;;;;;89.82;43.55;;;;;;;5.07;100.00;97947.28;5094092;28;20028;-47
2024/01/15 07:33:17;;;;;;;77.50;48.58;;;;;;;5.27;100.00;97955.28;5093943;28;20032;-47
2024/01/15 07:35:43;;;;;;;75.68;47.92;;;;;;;5.52;100.00;97951.34;5092584;28;20394;-45
2024/01/15 07:38:11;;;;;;;225.45;51.53;;;;;;;5.68;100.00;97960.72;5093848;28;20028;-46
2024/01/15 07:40:37;;;;;;;81.88;39.33;;;;;;;5.85;100.00;97963.03;5093786;28;20087;-46
2024/01/15 07:43:03;;;;;;;87.80;59.88;;;;;;;5.85;100.00;97953.44;5093886;28;20161;-46
2024/01/15 07:45:30;;;;;;;66.95;38.78;;;;;;;5.87;100.00;97946.22;5094074;28;20028;-45
2024/01/15 07:47:55;;;;;;;93.25;59.15;;;;;;;5.94;100.00;97941.09;5093781;28;20504;-45
2024/01/15 07:50:22;;;;;;;77.40;40.42;;;;;;;5.89;100.00;97944.25;5093763;28;20024;-46
2024/01/15 07:52:48;;;;;;;69.47;39.03;;;;;;;5.88;100.00;97945.25;5093612;28;20023;-46
2024/01/15 07:55:14;;;;;;;60.97;33.88;;;;;;;5.86;100.00;97944.63;5093459;28;20020;-46
2024/01/15 07:57:40;;;;;;;92.47;46.13;;;;;;;5.91;100.00;97944.06;5093629;28;20051;-46
2024/01/15 08:00:06;;;;;;;61.88;38.65;;;;;;;6.11;100.00;97945.03;5092210;28;20543;-47
2024/01/15 08:02:32;;;;;;;56.60;35.85;;;;;;;6.25;100.00;97932.13;5091713;28;20054;-48
2024/01/15 08:04:58;;;;;;;62.47;40.97;;;;;;;6.35;100.00;97932.56;5092078;28;20020;-47
2024/01/15 08:07:25;;;;;;;51.17;33.03;;;;;;;6.45;100.00;97927.81;5093296;28;20032;-46
2024/01/15 08:09:52;;;;;;;52.33;33.15;;;;;;;6.44;100.00;97933.22;5093290;28;20078;-46
2024/01/15 08:12:17;;;;;;;47.75;32.05;;;;;;;6.62;100.00;97940.53;5093239;28;20024;-46
2024/01/15 08:14:44;;;;;;;64.10;40.53;;;;;;;6.76;100.00;97950.03;5093203;28;20085;-46
2024/01/15 08:17:09;;;;;;;49.78;33.38;;;;;;;6.82;100.00;97948.44;5093132;28;20111;-46
2024/01/15 08:19:35;;;;;;;42.58;30.35;;;;;;;6.95;100.00;97951.91;5092942;28;20123;-45
2024/01/15 08:22:01;;;;;;;42.85;29.10;;;;;;;7.14;100.00;97954.78;5093044;28;20073;-45
2024/01/15 08:24:28;;;;;;;43.67;29.27;;;;;;;7.27;100.00;97954.03;5092961;28;20536;-46
2024/01/15 08:26:54;;;;;;;42.58;26.90;;;;;;;7.31;100.00;97947.41;5093039;28;20547;-45
2024/01/15 08:29:21;;;;;;;43.55;28.20;;;;;;;6.74;100.00;97936.38;5092908;28;20505;-45
2024/01/15 08:31:48;;;;;;;51.67;35.83;;;;;;;6.23;100.00;97939.31;5092952;28;20047;-46
2024/01/15 08:34:14;;;;;;;54.42;36.50;;;;;;;5.97;100.00;97940.72;5092843;28;20026;-45
2024/01/15 08:36:40;;;;;;;46.80;30.45;;;;;;;6.02;100.00;97937.56;5092820;28;20401;-46
2024/01/15 08:39:06;;;;;;;53.17;33.13;;;;;;;5.98;100.00;97940.56;5092766;28;20031;-45
2024/01/15 08:41:33;;;;;;;65.20;39.47;;;;;;;5.99;100.00;97949.97;5092613;28;20035;-46
2024/01/15 08:43:58;;;;;;;97.50;70.18;;;;;;;6.21;100.00;97949.91;5091619;28;20107;-46
2024/01/15 08:46:24;;;;;;;63.67;39.03;;;;;;;6.50;100.00;97950.69;5091326;28;20700;-46
2024/01/15 08:48:50;;;;;;;51.10;34.50;;;;;;;6.62;100.00;97949.19;5091312;28;20027;-45
2024/01/15 08:51:16;;;;;;;76.50;54.72;;;;;;;6.68;100.00;97939.75;5091190;28;20081;-46
2024/01/15 08:53:41;;;;;;;64.57;36.80;;;;;;;6.87;100.00;97938.25;5092583;28;20478;-46
2024/01/15 08:56:08;;;;;;;135.00;39.78;;;;;;;7.36;100.00;97931.97;5092340;28;20024;-46
2024/01/15 08:58:34;;;;;;;73.97;46.30;;;;;;;7.84;100.00;97917.94;5092385;28;20520;-46
2024/01/15 09:01:00;;;;;;;59.17;39.63;;;;;;;8.13;100.00;97919.31;5092415;28;20028;-46
2024/01/15 09:03:26;;;;;;;63.80;38.72;;;;;;;8.39;100.00;97916.66;5092344;28;20490;-46
2024/01/15 09:05:52;;;;;;;65.22;39.25;;;;;;;8.55;100.00;97918.06;5090940;28;20028;-46
2024/01/15 09:08:18;;;;;;;52.08;35.92;;;;;;;8.82;100.00;97919.78;5092322;28;20107;-46
2024/01/15 09:10:44;;;;;;;48.55;35.45;;;;;;;9.08;100.00;97922.28;5074106;28;20039;-46
2024/01/15 09:13:09;;;;;;;43.35;29.98;;;;;;;9.14;100.00;97920.63;5091505;28;20020;-46
2024/01/15 09:15:35;;;;;;;51.00;31.08;;;;;;;9.04;100.00;97923.69;5090772;28;20023;-46
2024/01/15 09:18:02;;;;;;;38.85;28.40;;;;;;;8.91;100.00;97919.31;5091902;28;20101;-46
2024/01/15 09:20:28;;;;;;;90.20;70.22;;;;;;;8.29;100.00;97916.28;5092163;28;20028;-46
2024/01/15 09:22:53;;;;;;;46.60;34.30;;;;;;;7.75;100.00;97925.97;5090783;28;20447;-45
2024/01/15 09:25:19;;;;;;;43.38;28.42;;;;;;;7.47;100.00;97925.38;5090657;28;20032;-45
2024/01/15 09:27:45;;;;;;;34.75;26.42;;;;;;;7.14;100.00;97911.25;5090736;28;20031;-45
2024/01/15 09:30:11;;;;;;;68.18;52.60;;;;;;;7.09;100.00;97923.28;5090628;28;20031;-45
2024/01/15 09:32:37;;;;;;;61.03;43.03;;;;;;;7.13;100.00;97908.84;5090864;28;20397;-45
2024/01/15 09:35:03;;;;;;;39.92;27.08;;;;;;;7.18;100.00;97924.69;5091778;28;20455;-45
2024/01/15 09:37:29;;;;;;;41.60;28.33;;;;;;;7.23;100.00;97930.13;5090593;28;20047;-45
2024/01/15 09:39:55;;;;;;;37.28;25.77;;;;;;;7.38;100.00;97932.56;5090563;28;20059;-45
2024/01/15 09:42:25;;;;;;;52.28;39.50;;;;;;;7.39;100.00;97929.75;5091769;28;20097;-46
2024/01/15 09:44:52;;;;;;;40.65;29.90;;;;;;;7.31;100.00;97934.38;5090497;28;20497;-45
2024/01/15 09:47:19;;;;;;;47.63;31.50;;;;;;;7.25;100.00;97937.78;5090483;28;20440;-45
2024/01/15 09:49:45;;;;;;;43.30;31.95;;;;;;;7.26;100.00;97926.31;5090479;28;20082;-46
2024/01/15 09:52:11;;;;;;;40.53;28.92;;;;;;;7.40;100.00;97936.59;5090378;28;20020;-45
2024/01/15 09:54:38;;;;;;;78.35;65.43;;;;;;;7.55;100.00;97938.22;5091785;28;20494;-46
2024/01/15 09:57:04;;;;;;;139.82;113.22;;;;;;;7.77;100.00;97926.59;5090302;28;20077;-45
2024/01/15 09:59:32;;;;;;;192.50;154.48;;;;;;;8.02;100.00;97920.75;5091709;28;20036;-45
2024/01/15 10:02:00;;;;;;;74.22;60.35;;;;;;;7.93;100.00;97911.53;5091621;28;20023;-46
2024/01/15 10:04:25;;;;;;;59.17;41.65;;;;;;;7.61;100.00;97911.31;5091619;28;20035;-45
2024/01/15 10:06:52;;;;;;;111.70;69.32;;;;;;;7.52;100.00;97925.56;5090580;28;20028;-45
2024/01/15 10:09:18;;;;;;;106.85;69.47;;;;;;;7.76;100.00;97924.97;5091543;28;20561;-45
2024/01/15 10:11:44;;;;;;;55.83;36.33;;;;;;;8.05;100.00;97927.38;5090270;28;20108;-46
2024/01/15 10:14:14;;;;;;;49.72;31.98;;;;;;;8.00;100.00;97920.13;5091584;28;20051;-45
2024/01/15 10:16:41;;;;;;;63.38;43.00;;;;;;;8.08;100.00;97917.31;5091484;28;20020;-45
2024/01/15 10:19:07;;;;;;;67.63;48.42;;;;;;;8.23;100.00;97919.72;5091225;28;20417;-46
2024/01/15 10:21:36;;;;;;;72.88;53.53;;;;;;;8.25;100.00;97925.56;5091522;28;20028;-45
2024/01/15 10:24:03;;;;;;;64.68;43.38;;;;;;;8.25;100.00;97919.50;5091679;28;20490;-46
2024/01/15 10:26:29;;;;;;;73.50;52.35;;;;;;;8.34;100.00;97913.06;5095381;28;20408;-45
2024/01/15 10:28:55;;;;;;;177.68;48.20;;;;;;;8.52;100.00;97910.63;5095378;28;20020;-47
2024/01/15 10:31:21;;;;;;;122.32;93.50;;;;;;;8.85;100.00;97904.44;5093896;28;20049;-46
2024/01/15 10:33:50;;;;;;;315.75;280.67;;;;;;;8.97;100.00;97908.03;5095200;28;20035;-47
2024/01/15 10:36:17;;;;;;;145.32;107.45;;;;;;;9.22;100.00;97911.75;5095109;28;20062;-47
2024/01/15 10:38:46;;;;;;;141.57;112.55;;;;;;;9.47;100.00;97903.91;5095355;28;20355;-47
2024/01/15 10:41:12;;;;;;;74.80;56.55;;;;;;;9.54;100.00;97915.94;5093735;28;20032;-47
2024/01/15 10:43:40;;;;;;;72.25;50.90;;;;;;;9.57;100.00;97901.63;5093705;28;20080;-48
2024/01/15 10:46:07;;;;;;;118.57;96.05;;;;;;;9.32;100.00;97885.88;5094919;28;20103;-48
2024/01/15 10:48:35;;;;;;;70.00;54.28;;;;;;;9.10;100.00;97880.19;5093616;28;20111;-47
2024/01/15 10:51:08;;;;;;;54.35;37.10;;;;;;;8.92;100.00;97880.88;5095133;28;20043;-48
2024/01/15 10:53:36;;;;;;;50.65;37.15;;;;;;;8.84;100.00;97879.31;5094895;28;20016;-48
2024/01/15 10:56:04;;;;;;;61.65;45.03;;;;;;;8.72;100.00;97863.47;5094752;28;20103;-48
2024/01/15 10:58:31;;;;;;;81.45;66.47;;;;;;;8.64;100.00;97873.38;5094857;28;20021;-48
2024/01/15 11:00:57;;;;;;;54.33;40.70;;;;;;;8.59;100.00;97879.19;5094790;28;20040;-48
2024/01/15 11:03:23;;;;;;;46.40;32.72;;;;;;;8.51;100.00;97885.50;5094662;28;20081;-48
2024/01/15 11:05:50;;;;;;;42.10;32.50;;;;;;;8.50;100.00;97881.25;5094698;28;20024;-48
2024/01/15 11:08:18;;;;;;;38.92;27.25;;;;;;;8.48;100.00;97883.28;5093355;28;20032;-49
2024/01/15 11:10:51;;;;;;;69.38;50.45;;;;;;;8.39;100.00;97880.06;5076555;28;20032;-48
2024/01/15 11:13:22;;;;;;;57.38;40.92;;;;;;;8.33;100.00;97878.28;5094557;28;20081;-48
2024/01/15 11:16:02;;;;;;;44.83;31.83;;;;;;;8.36;100.00;97880.47;5094581;28;20375;-46